KMRF/MRF METAR and TAF weather

Enter ICAO airport designator
Station Type Date Time Source
KMRF METAR 2021/05/10 00:56 UTC NOAA

KMRF 100056Z AUTO 26004KT 10SM CLR 27/M14 A2999 RMK AO2 SLP101 T02721144


Station Type Date Time Source
KMRF Decoded METAR 2021/05/10 00:56 UTC NOAA

Marfa, TX, United States (KMRF) 30-22N 104-01W 1481M
May 09, 2021 - 08:56 PM EDT / 2021.05.10 0056 UTC
Wind: from the W (260 degrees) at 5 MPH (4 KT):0
Visibility: 10 mile(s):0
Sky conditions: clear
Temperature: 81.0 F (27.2 C)
Dew Point: 6.1 F (-14.4 C)
Relative Humidity: 5%
Pressure (altimeter): 29.99 in. Hg (1015 hPa)
ob: KMRF 100056Z AUTO 26004KT 10SM CLR 27/M14 A2999 RMK AO2 SLP101 T02721144
cycle: 1

Station Type Date Time Source
KMRF TAF UTC NOAA

Error!

Example: see airport list